Time;durP1;ratioP1;P1;durP2;ratioP2;P2;SDS_P1;SDS_P2;PMS_P1;PMS_P2;Temp;Humidity;BMP_temperature;BMP_pressure;BME280_temperature;BME280_humidity;BME280_pressure;Samples;Min_cycle;Max_cycle;Signal;HPM_P1;HPM_P2
2022/03/10 00:01:53;;;;;;;;;39.25;34.75;;;;;10.92;48.81;101337.47;5057017;28;45429;-73
2022/03/10 00:04:18;;;;;;;;;37.25;33.50;;;;;10.86;49.25;101329.44;5056132;28;46543;-73
2022/03/10 00:06:45;;;;;;;;;34.75;32.50;;;;;10.97;49.55;101345.41;5055096;28;45505;-73
2022/03/10 00:09:10;;;;;;;;;41.25;35.50;;;;;10.82;49.61;101322.38;5055318;28;45466;-75
2022/03/10 00:11:35;;;;;;;;;33.25;31.25;;;;;10.82;48.59;101328.53;5037736;28;45545;-76
2022/03/10 00:14:01;;;;;;;;;39.50;32.75;;;;;10.92;49.43;101341.84;5056052;28;45490;-76
2022/03/10 00:16:26;;;;;;;;;40.50;36.50;;;;;10.60;49.48;101294.75;5050879;28;45616;-81
2022/03/10 00:18:52;;;;;;;;;33.25;31.00;;;;;10.68;48.60;101308.06;5053875;28;45529;-78
2022/03/10 00:21:17;;;;;;;;;39.25;35.25;;;;;10.87;48.64;101339.13;5055006;28;45493;-78
2022/03/10 00:23:43;;;;;;;;;36.50;33.25;;;;;10.81;48.82;101332.03;5055890;28;46267;-78
2022/03/10 00:26:08;;;;;;;;;39.00;35.50;;;;;10.84;49.13;101339.09;5055163;28;45497;-82
2022/03/10 00:28:34;;;;;;;;;34.50;31.00;;;;;10.72;49.13;101320.44;5058809;28;45703;-75
2022/03/10 00:30:59;;;;;;;;;37.25;32.75;;;;;10.78;49.21;101333.69;5059932;28;45310;-74
2022/03/10 00:33:25;;;;;;;;;31.00;29.50;;;;;10.78;49.22;101344.25;5057280;28;46727;-76
2022/03/10 00:35:50;;;;;;;;;33.25;31.00;;;;;10.70;48.90;101330.06;5058124;28;45433;-73
2022/03/10 00:38:16;;;;;;;;;31.50;29.00;;;;;10.70;48.73;101330.97;5058335;28;45322;-74
2022/03/10 00:40:41;;;;;;;;;37.25;30.25;;;;;10.74;49.40;101343.31;5060306;28;45489;-76
2022/03/10 00:43:13;;;;;;;;;38.75;35.50;;;;;10.72;48.69;101342.41;5059575;28;46027;-75
2022/03/10 00:45:39;;;;;;;;;32.50;30.75;;;;;10.66;49.24;101333.50;5057566;28;45343;-76
2022/03/10 00:48:05;;;;;;;;;37.25;32.50;;;;;10.61;49.45;101329.91;5059546;28;45949;-75
2022/03/10 00:50:31;;;;;;;;;43.00;33.75;;;;;10.58;49.28;101322.84;5058036;28;45504;-77
2022/03/10 00:52:56;;;;;;;;;38.25;33.75;;;;;10.64;49.14;101346.66;5057849;28;47162;-73
2022/03/10 00:55:22;;;;;;;;;36.50;33.50;;;;;10.59;49.04;101339.53;5060810;28;45449;-75
2022/03/10 00:57:49;;;;;;;;;41.50;32.00;;;;;10.61;49.17;101344.00;5057396;28;45367;-76
2022/03/10 01:00:15;;;;;;;;;39.50;35.75;;;;;10.65;48.82;101350.19;5058141;28;45440;-75
2022/03/10 01:02:41;;;;;;;;;32.50;31.50;;;;;10.50;48.94;101327.09;5057669;28;45715;-75
2022/03/10 01:05:07;;;;;;;;;32.00;28.50;;;;;10.55;48.97;101344.75;5058766;28;45739;-79
2022/03/10 01:07:33;;;;;;;;;39.50;33.75;;;;;10.36;49.55;101331.25;5059016;28;45421;-79
2022/03/10 01:09:59;;;;;;;;;42.00;32.75;;;;;10.36;49.11;101332.13;5060651;28;45359;-79
2022/03/10 01:12:25;;;;;;;;;37.00;32.00;;;;;10.42;49.25;101345.41;5058036;28;45924;-77
2022/03/10 01:14:50;;;;;;;;;40.50;37.00;;;;;10.45;49.69;101350.72;5059082;28;45415;-79
2022/03/10 01:17:16;;;;;;;;;39.25;35.00;;;;;10.43;49.43;101348.94;5058221;28;45558;-76
2022/03/10 01:19:41;;;;;;;;;30.25;30.25;;;;;10.44;49.82;101348.97;5059403;28;45453;-76
2022/03/10 01:22:07;;;;;;;;;33.75;31.50;;;;;10.42;49.38;101353.31;5057794;28;47438;-76
2022/03/10 01:24:33;;;;;;;;;33.25;30.75;;;;;10.39;49.45;101357.63;5057460;28;45417;-76
2022/03/10 01:26:59;;;;;;;;;38.25;32.25;;;;;10.36;49.27;101354.94;5057793;28;45397;-76
2022/03/10 01:29:24;;;;;;;;;38.50;35.25;;;;;10.35;49.49;101351.44;5057795;28;45400;-77
2022/03/10 01:31:50;;;;;;;;;37.75;32.25;;;;;10.26;49.24;101328.44;5057616;28;46423;-77
2022/03/10 01:34:15;;;;;;;;;31.00;27.00;;;;;10.22;49.71;101333.63;5058571;28;45348;-77
2022/03/10 01:36:40;;;;;;;;;31.25;28.25;;;;;10.17;49.67;101328.25;5056966;28;45397;-81
2022/03/10 01:39:06;;;;;;;;;36.25;33.00;;;;;10.24;49.50;101339.81;5058189;28;45410;-80
2022/03/10 01:41:32;;;;;;;;;36.25;34.50;;;;;10.24;49.41;101343.34;5057652;28;45692;-79
2022/03/10 01:44:00;;;;;;;;;36.75;34.75;;;;;10.17;49.46;101330.00;5055989;28;45346;-78
2022/03/10 01:46:26;;;;;;;;;39.00;36.50;;;;;10.23;48.99;101338.03;5057793;28;45305;-78
2022/03/10 01:48:53;;;;;;;;;26.00;26.00;;;;;10.17;49.31;101346.69;5057746;28;45501;-81
2022/03/10 01:51:19;;;;;;;;;36.75;35.75;;;;;10.14;49.38;101338.69;5055567;28;47189;-78
2022/03/10 01:53:44;;;;;;;;;36.00;34.75;;;;;10.14;49.80;101343.97;5057385;28;45423;-79
2022/03/10 01:56:11;;;;;;;;;36.00;33.75;;;;;10.06;49.66;101328.91;5057064;28;45405;-80
2022/03/10 01:58:39;;;;;;;;;43.00;36.50;;;;;10.02;49.26;101327.94;5056810;28;45440;-78
2022/03/10 02:01:05;;;;;;;;;37.00;32.00;;;;;10.07;49.92;101338.59;5056811;28;45434;-79
2022/03/10 02:03:30;;;;;;;;;34.25;34.00;;;;;9.89;49.62;101316.31;5057634;28;45608;-80
2022/03/10 02:05:56;;;;;;;;;33.00;33.00;;;;;10.02;49.49;101341.09;5055406;28;45409;-80
2022/03/10 02:11:06;;;;;;;;;32.00;32.00;;;;;9.96;49.90;101331.38;5058118;28;45412;-80
2022/03/10 02:13:32;;;;;;;;;45.25;37.25;;;;;9.79;50.15;101309.09;5057292;28;45364;-82
2022/03/10 02:18:41;;;;;;;;;37.00;33.25;;;;;9.81;50.13;101328.44;5057228;28;45260;-76
2022/03/10 02:21:07;;;;;;;;;39.50;34.75;;;;;9.82;50.18;101329.31;5055219;28;47328;-77
2022/03/10 02:23:32;;;;;;;;;40.50;34.50;;;;;9.73;49.93;101319.50;5057541;28;45391;-79
2022/03/10 02:26:01;;;;;;;;;36.50;33.50;;;;;9.79;50.05;101338.03;5058118;28;45980;-80
2022/03/10 02:28:27;;;;;;;;;40.50;36.50;;;;;9.69;49.50;101326.44;5056670;28;45535;-79
2022/03/10 02:30:54;;;;;;;;;39.25;31.50;;;;;9.74;50.27;101339.69;5056788;28;47213;-80
2022/03/10 02:33:20;;;;;;;;;31.00;26.75;;;;;9.63;50.07;101313.16;5057406;28;45437;-77
2022/03/10 02:35:46;;;;;;;;;41.00;32.00;;;;;9.63;50.83;101325.41;5057030;28;45485;-74
2022/03/10 02:38:17;;;;;;;;;31.25;28.75;;;;;9.55;50.26;101319.13;5057336;28;45335;-75
2022/03/10 02:40:44;;;;;;;;;33.00;25.50;;;;;9.60;50.65;101339.41;5056028;28;46631;-75
2022/03/10 02:43:09;;;;;;;;;33.25;32.00;;;;;9.57;50.49;101341.94;5056264;28;45290;-72
2022/03/10 02:45:34;;;;;;;;;40.00;36.25;;;;;9.52;50.67;101340.97;5057094;28;45415;-74
2022/03/10 02:48:00;;;;;;;;;39.00;31.00;;;;;9.56;50.54;101344.56;5055891;28;45419;-79
2022/03/10 02:50:25;;;;;;;;;39.25;34.25;;;;;9.55;50.54;101342.78;5055655;28;47037;-77
2022/03/10 02:52:51;;;;;;;;;33.50;33.25;;;;;9.51;50.71;101333.94;5038331;28;45537;-75
2022/03/10 02:55:16;;;;;;;;;34.75;32.75;;;;;9.57;50.47;101341.94;5061118;28;45520;-76
2022/03/10 02:57:42;;;;;;;;;38.50;34.50;;;;;9.56;50.56;101350.69;5056912;28;45560;-79
2022/03/10 03:00:08;;;;;;;;;37.00;34.00;;;;;9.54;50.58;101349.78;5056908;28;45909;-84
2022/03/10 03:02:34;;;;;;;;;29.00;25.75;;;;;9.49;50.51;101335.63;5057612;28;45403;-84
2022/03/10 03:04:59;;;;;;;;;47.25;39.00;;;;;9.55;50.58;101348.94;5056408;28;45425;-80
2022/03/10 03:07:25;;;;;;;;;35.25;31.75;;;;;9.56;50.62;101345.44;5058034;28;45450;-83
2022/03/10 03:09:50;;;;;;;;;36.50;33.25;;;;;9.41;50.51;101319.72;5058255;28;47080;-79
2022/03/10 03:12:16;;;;;;;;;37.25;34.25;;;;;9.43;50.93;101327.63;5038680;28;45440;-75
2022/03/10 03:14:41;;;;;;;;;38.00;34.25;;;;;9.49;51.00;101356.69;5058267;28;45402;-77
2022/03/10 03:17:07;;;;;;;;;36.00;30.25;;;;;9.39;51.14;101338.94;5058774;28;45599;-77
2022/03/10 03:19:33;;;;;;;;;34.50;30.75;;;;;9.27;50.80;101323.78;5061259;28;47302;-77
2022/03/10 03:21:58;;;;;;;;;29.75;28.50;;;;;9.38;51.03;101347.66;5056373;28;45274;-83
2022/03/10 03:24:24;;;;;;;;;36.25;34.00;;;;;9.36;51.21;101337.13;5057111;28;45751;-73
2022/03/10 03:26:49;;;;;;;;;29.75;27.75;;;;;9.29;51.47;101340.47;5057469;28;45970;-76
2022/03/10 03:29:15;;;;;;;;;35.75;32.50;;;;;9.33;51.68;101346.69;5056824;28;47247;-78
2022/03/10 03:31:40;;;;;;;;;30.75;28.25;;;;;9.33;51.56;101354.59;5055598;28;45318;-78
2022/03/10 03:34:10;;;;;;;;;29.75;26.00;;;;;9.27;51.87;101344.81;5055460;28;45315;-78
2022/03/10 03:36:42;;;;;;;;;38.25;33.75;;;;;9.30;51.41;101355.38;5055811;28;45595;-78
2022/03/10 03:39:08;;;;;;;;;39.00;33.00;;;;;9.30;51.94;101365.00;5055303;28;47152;-80
2022/03/10 03:41:34;;;;;;;;;35.75;34.25;;;;;9.21;51.42;101352.53;5054983;28;45445;-74
2022/03/10 03:44:00;;;;;;;;;33.50;30.50;;;;;9.14;51.44;101332.25;5055296;28;45343;-80
2022/03/10 03:46:26;;;;;;;;;35.50;30.25;;;;;9.26;51.83;101360.56;5055948;28;45527;-77
2022/03/10 03:48:51;;;;;;;;;39.75;34.75;;;;;9.23;51.80;101358.75;5055360;28;47157;-76
2022/03/10 03:51:17;;;;;;;;;34.00;31.75;;;;;9.25;51.75;101364.03;5054970;28;45592;-77
2022/03/10 03:53:42;;;;;;;;;36.75;31.50;;;;;9.24;51.88;101359.63;5055305;28;45915;-76
2022/03/10 03:56:08;;;;;;;;;36.00;29.25;;;;;9.22;52.12;101358.72;5055515;28;45368;-78
2022/03/10 03:58:33;;;;;;;;;29.50;27.25;;;;;9.20;51.82;101365.66;5054724;28;45551;-70
2022/03/10 04:00:58;;;;;;;;;38.00;34.50;;;;;9.20;51.43;101369.19;5058195;28;45553;-78
2022/03/10 04:03:24;;;;;;;;;32.75;28.75;;;;;9.17;52.25;101365.59;5058971;28;45385;-78
2022/03/10 04:05:49;;;;;;;;;37.25;34.25;;;;;9.15;51.78;101370.81;5059122;28;45452;-82
2022/03/10 04:08:15;;;;;;;;;35.00;32.00;;;;;9.16;52.43;101369.97;5040407;28;46891;-79
2022/03/10 04:10:40;;;;;;;;;42.25;33.75;;;;;9.06;51.87;101361.00;5058551;28;45287;-81
2022/03/10 04:13:06;;;;;;;;;36.25;34.00;;;;;9.12;52.29;101365.50;5058579;28;45386;-80
2022/03/10 04:15:34;;;;;;;;;45.50;37.00;;;;;9.09;52.52;101363.69;5058179;28;45497;-81
2022/03/10 04:17:59;;;;;;;;;37.75;33.25;;;;;9.06;52.90;101370.63;5057442;28;45697;-78
2022/03/10 04:20:24;;;;;;;;;34.50;30.75;;;;;9.01;52.57;101361.72;5058527;28;45440;-80
2022/03/10 04:22:50;;;;;;;;;39.00;33.75;;;;;9.03;52.44;101374.06;5058694;28;45522;-79
2022/03/10 04:25:16;;;;;;;;;34.75;28.25;;;;;9.01;52.76;101378.38;5058763;28;45514;-77
2022/03/10 04:27:42;;;;;;;;;45.50;34.50;;;;;9.02;52.71;101376.63;5058098;28;46601;-79
2022/03/10 04:30:08;;;;;;;;;38.50;32.50;;;;;8.94;52.86;101372.97;5059187;28;45418;-78
2022/03/10 04:32:44;;;;;;;;;39.50;35.50;;;;;8.97;52.75;101381.78;5058740;28;45425;-79
2022/03/10 04:35:12;;;;;;;;;28.00;23.25;;;;;8.90;53.12;101377.22;5059065;28;45493;-80
2022/03/10 04:37:37;;;;;;;;;13.00;8.25;;;;;8.93;52.76;101387.81;5059424;28;47687;-78
2022/03/10 04:40:06;;;;;;;;;34.00;33.50;;;;;8.91;52.87;101378.13;5059359;28;45488;-71
2022/03/10 04:42:34;;;;;;;;;38.25;36.25;;;;;8.90;53.29;101378.97;5058498;28;45464;-75
2022/03/10 04:45:00;;;;;;;;;34.75;34.25;;;;;8.87;53.42;101384.16;5057680;28;45302;-75
2022/03/10 04:47:26;;;;;;;;;34.25;32.50;;;;;8.79;53.30;101376.97;5057695;28;45648;-74
2022/03/10 04:49:51;;;;;;;;;38.50;36.50;;;;;8.78;53.50;101369.06;5048095;28;45438;-73
2022/03/10 04:52:17;;;;;;;;;36.50;36.25;;;;;8.80;53.29;101377.84;5058372;28;45426;-81
2022/03/10 04:54:42;;;;;;;;;33.00;31.25;;;;;8.78;53.37;101380.44;5058841;28;45538;-73
2022/03/10 04:57:07;;;;;;;;;41.50;33.50;;;;;8.73;53.87;101368.94;5057914;28;46031;-77
2022/03/10 04:59:33;;;;;;;;;34.50;31.00;;;;;8.70;53.87;101363.59;5058078;28;45493;-78
2022/03/10 05:01:58;;;;;;;;;39.00;31.75;;;;;8.80;54.20;101383.13;5058381;28;45963;-75
2022/03/10 05:04:24;;;;;;;;;34.25;31.50;;;;;8.77;54.07;101385.66;5058368;28;45405;-76
2022/03/10 05:06:49;;;;;;;;;35.00;31.25;;;;;8.77;53.69;101383.03;5057711;28;46325;-74
2022/03/10 05:09:15;;;;;;;;;36.75;30.25;;;;;8.71;53.97;101367.13;5057914;28;45402;-74
2022/03/10 05:11:40;;;;;;;;;43.25;35.75;;;;;8.76;54.26;101381.28;5057230;28;45426;-70
2022/03/10 05:14:06;;;;;;;;;37.25;33.75;;;;;8.56;53.91;101342.28;5057779;28;45423;-77
2022/03/10 05:16:31;;;;;;;;;35.50;33.75;;;;;8.72;54.51;101380.28;5057698;28;45982;-76
2022/03/10 05:18:57;;;;;;;;;34.50;33.75;;;;;8.69;54.51;101374.09;5057846;28;45467;-78
2022/03/10 05:21:22;;;;;;;;;36.50;31.00;;;;;8.62;54.43;101359.91;5057924;28;45446;-78
2022/03/10 05:23:52;;;;;;;;;33.50;30.75;;;;;8.70;54.70;101373.22;5055995;28;46476;-76
2022/03/10 05:26:17;;;;;;;;;36.00;34.00;;;;;8.61;53.94;101355.50;5057278;28;45513;-77
2022/03/10 05:28:43;;;;;;;;;37.25;31.75;;;;;8.54;54.44;101348.31;5057216;28;45818;-72
2022/03/10 05:31:08;;;;;;;;;19.00;17.50;;;;;8.67;54.11;101383.66;5057619;28;45493;-72
2022/03/10 05:33:33;;;;;;;;;38.25;36.25;;;;;8.58;54.47;101368.56;5057599;28;45427;-79
2022/03/10 05:35:59;;;;;;;;;41.50;35.50;;;;;8.60;55.25;101377.34;5057258;28;45692;-75
2022/03/10 05:38:24;;;;;;;;;33.75;33.00;;;;;8.53;54.86;101370.16;5057218;28;45479;-76
2022/03/10 05:40:50;;;;;;;;;39.75;35.75;;;;;8.59;54.88;101386.09;5057306;28;45403;-72
2022/03/10 05:43:15;;;;;;;;;33.50;32.75;;;;;8.58;54.79;101384.31;5057145;28;45441;-74
2022/03/10 05:45:40;;;;;;;;;36.50;33.00;;;;;8.56;54.90;101381.66;5057047;28;45373;-77
2022/03/10 05:48:06;;;;;;;;;49.00;36.75;;;;;8.52;55.05;101382.41;5057247;28;45444;-75
2022/03/10 05:50:31;;;;;;;;;37.75;32.00;;;;;8.52;54.97;101386.78;5057268;28;45459;-81
2022/03/10 05:52:57;;;;;;;;;39.25;33.75;;;;;8.50;55.81;101381.50;5057280;28;45464;-75
2022/03/10 05:55:23;;;;;;;;;37.25;33.25;;;;;8.42;55.53;101369.00;5056950;28;45285;-73
2022/03/10 05:57:49;;;;;;;;;45.50;37.50;;;;;8.40;55.15;101368.97;5055993;28;45225;-77
2022/03/10 06:00:15;;;;;;;;;32.50;31.00;;;;;8.46;55.20;101378.72;5057021;28;45555;-79
2022/03/10 06:02:41;;;;;;;;;39.50;32.75;;;;;8.43;56.08;101384.78;5056916;28;45460;-74
2022/03/10 06:05:07;;;;;;;;;42.00;37.00;;;;;8.43;55.69;101386.53;5056812;28;45525;-76
2022/03/10 06:07:33;;;;;;;;;36.50;32.75;;;;;8.40;55.63;101389.09;5056811;28;46463;-74
2022/03/10 06:09:58;;;;;;;;;47.67;38.33;;;;;8.38;55.75;101385.53;5038803;28;45565;-75
2022/03/10 06:12:26;;;;;;;;;35.00;34.25;;;;;8.37;55.96;101375.84;5056602;28;45492;-71
2022/03/10 06:14:53;;;;;;;;;42.50;36.50;;;;;8.43;55.76;101390.03;5056406;28;45442;-72
2022/03/10 06:17:20;;;;;;;;;43.00;37.00;;;;;8.42;56.05;101390.00;5056173;28;45282;-74
2022/03/10 06:19:45;;;;;;;;;44.75;37.50;;;;;8.23;55.82;101360.59;5057275;28;45334;-76
2022/03/10 06:22:15;;;;;;;;;41.25;33.25;;;;;8.30;56.14;101380.03;5057326;28;45295;-80
2022/03/10 06:24:40;;;;;;;;;39.00;35.75;;;;;8.33;56.34;101381.84;5055321;28;45430;-76
2022/03/10 06:27:06;;;;;;;;;40.00;36.50;;;;;8.40;56.79;101396.97;5056227;28;45495;-79
2022/03/10 06:29:31;;;;;;;;;39.33;35.33;;;;;8.39;56.16;101392.56;5055564;28;45465;-79
2022/03/10 06:31:57;;;;;;;;;42.25;37.00;;;;;8.40;55.91;101396.97;5055660;28;45679;-77
2022/03/10 06:34:22;;;;;;;;;47.33;39.00;;;;;8.39;55.83;101397.81;5056066;28;45939;-77
2022/03/10 06:36:48;;;;;;;;;49.67;41.00;;;;;8.39;55.64;101401.31;5073704;27;45508;-77
2022/03/10 06:39:14;;;;;;;;;46.00;39.33;;;;;8.36;56.14;101402.97;5055595;28;45278;-76
2022/03/10 06:41:39;;;;;;;;;38.67;33.67;;;;;8.39;56.51;101401.31;5056939;28;46914;-73
2022/03/10 06:44:05;;;;;;;;;42.25;37.00;;;;;8.40;55.92;101402.22;5055841;28;47273;-74
2022/03/10 06:46:31;;;;;;;;;45.67;39.67;;;;;8.36;56.40;101389.84;5056186;28;45417;-73
2022/03/10 06:48:56;;;;;;;;;37.00;33.25;;;;;8.34;56.03;101378.38;5055608;28;45445;-72
2022/03/10 06:51:21;;;;;;;;;31.50;29.00;;;;;8.39;55.91;101398.69;5055844;28;45412;-74
2022/03/10 06:53:47;;;;;;;;;38.50;33.00;;;;;8.33;56.80;101400.22;5056755;28;45589;-73
2022/03/10 06:56:12;;;;;;;;;34.25;34.25;;;;;8.36;56.49;101405.59;5037620;28;45519;-73
2022/03/10 06:58:40;;;;;;;;;46.00;35.25;;;;;8.27;56.54;101403.56;5056126;28;46370;-74
2022/03/10 07:01:05;;;;;;;;;39.33;36.33;;;;;8.20;57.89;101412.16;5057259;28;45481;-74
2022/03/10 07:03:30;;;;;;;;;35.00;32.25;;;;;8.14;57.98;101411.97;5055553;28;46120;-76
2022/03/10 07:05:56;;;;;;;;;38.00;36.00;;;;;8.16;57.21;101403.28;5055080;28;45421;-77
2022/03/10 07:08:21;;;;;;;;;29.75;29.75;;;;;8.13;57.75;101404.94;5055766;28;45448;-79
2022/03/10 07:10:46;;;;;;;;;38.00;36.33;;;;;8.19;57.99;101416.50;5056352;28;45515;-77
2022/03/10 07:13:12;;;;;;;;;40.67;35.67;;;;;8.21;58.00;101421.78;5057590;28;45398;-74
2022/03/10 07:15:37;;;;;;;;;39.50;35.75;;;;;8.26;57.08;101428.03;5037378;28;45492;-73
2022/03/10 07:18:03;;;;;;;;;40.33;37.33;;;;;8.26;57.54;101420.16;5054273;28;45281;-76
2022/03/10 07:20:29;;;;;;;;;42.00;38.33;;;;;8.14;57.37;101380.47;5053181;28;46284;-76
2022/03/10 07:22:54;;;;;;;;;39.75;35.75;;;;;8.34;57.51;101421.25;5052730;28;46859;-73
2022/03/10 07:25:20;;;;;;;;;36.50;36.25;;;;;8.34;57.31;101415.13;5054373;28;45386;-76
2022/03/10 07:27:45;;;;;;;;;43.25;37.00;;;;;8.35;57.23;101409.06;5069350;27;45512;-75
2022/03/10 07:30:11;;;;;;;;;37.25;35.50;;;;;8.40;57.03;101415.34;5053691;28;45539;-76
2022/03/10 07:32:37;;;;;;;;;38.75;36.75;;;;;8.54;57.29;101427.97;5054351;28;47369;-77
2022/03/10 07:35:02;;;;;;;;;34.75;32.75;;;;;8.51;57.22;101433.16;5055670;28;46109;-73
2022/03/10 07:37:28;;;;;;;;;35.75;35.25;;;;;8.56;57.47;101428.00;5059663;28;45460;-73
2022/03/10 07:39:53;;;;;;;;;44.50;36.25;;;;;8.65;57.16;101425.63;5057962;28;45574;-77
2022/03/10 07:42:19;;;;;;;;;37.75;35.00;;;;;8.76;56.90;101423.31;5057081;28;45568;-79
2022/03/10 07:44:44;;;;;;;;;36.25;33.00;;;;;8.90;56.68;101426.25;5057835;28;45925;-82
2022/03/10 07:47:10;;;;;;;;;17.50;14.00;;;;;8.95;55.87;101425.53;5056776;28;45670;-82
2022/03/10 07:49:35;;;;;;;;;34.25;30.75;;;;;8.95;56.27;101432.53;5058923;28;45564;-79
2022/03/10 07:52:02;;;;;;;;;47.25;38.50;;;;;8.50;56.18;101359.59;5058128;28;46545;-80
2022/03/10 07:54:27;;;;;;;;;47.75;36.50;;;;;9.00;56.28;101430.91;5058232;28;45574;-78
2022/03/10 07:56:52;;;;;;;;;40.00;37.00;;;;;8.98;56.48;101409.84;5057498;28;45813;-75
2022/03/10 07:59:18;;;;;;;;;40.75;37.00;;;;;9.05;55.77;101413.53;5058180;28;45580;-79
2022/03/10 08:01:44;;;;;;;;;41.50;35.75;;;;;9.25;55.74;101421.88;5054768;28;47581;-78
2022/03/10 08:04:09;;;;;;;;;39.75;36.00;;;;;9.38;55.49;101427.44;5058905;28;45380;-76
2022/03/10 08:06:34;;;;;;;;;35.25;30.75;;;;;9.08;55.51;101367.16;5039515;28;45468;-75
2022/03/10 08:09:02;;;;;;;;;48.75;36.00;;;;;9.45;55.13;101423.22;5072623;28;45630;-76
2022/03/10 08:11:27;;;;;;;;;36.75;30.75;;;;;9.48;55.54;101423.28;5064752;28;45653;-76
2022/03/10 08:13:53;;;;;;;;;38.00;35.75;;;;;9.45;55.36;101427.59;5060274;28;45436;-77
2022/03/10 08:16:19;;;;;;;;;32.00;30.50;;;;;9.34;55.22;101408.94;5060346;28;45397;-79
2022/03/10 08:18:45;;;;;;;;;31.00;28.75;;;;;9.43;55.21;101423.19;5060584;28;45432;-76
2022/03/10 08:21:11;;;;;;;;;19.75;18.00;;;;;9.39;55.40;101426.59;5069483;28;45640;-75
2022/03/10 08:23:36;;;;;;;;;32.75;29.50;;;;;9.42;55.78;101425.78;5071168;28;45580;-79
2022/03/10 08:26:02;;;;;;;;;30.75;30.75;;;;;9.33;56.06;101418.56;5068716;28;45211;-74
2022/03/10 08:28:28;;;;;;;;;41.00;38.75;;;;;9.52;56.32;101430.41;5079625;28;45773;-78
2022/03/10 08:30:53;;;;;;;;;49.25;36.75;;;;;9.46;55.38;101418.84;5064142;28;45241;-78
2022/03/10 08:33:20;;;;;;;;;46.25;32.75;;;;;9.49;55.64;101406.66;5059890;28;45288;-80
2022/03/10 08:35:45;;;;;;;;;28.50;28.50;;;;;9.73;55.76;101423.84;5060718;28;45345;-79
2022/03/10 08:38:11;;;;;;;;;34.50;33.00;;;;;9.80;55.45;101412.59;5073205;28;45243;-78
2022/03/10 08:40:37;;;;;;;;;42.25;36.00;;;;;9.65;54.51;101358.78;5080004;28;48455;-78
2022/03/10 08:43:02;;;;;;;;;30.75;30.50;;;;;10.13;54.75;101418.53;5065838;28;45436;-79
2022/03/10 08:45:28;;;;;;;;;32.25;29.75;;;;;10.23;54.30;101419.66;5059897;27;45413;-75
2022/03/10 08:47:55;;;;;;;;;42.75;36.00;;;;;10.26;53.98;101417.97;5059607;28;45320;-77
2022/03/10 08:50:24;;;;;;;;;37.00;33.00;;;;;10.35;53.71;101409.38;5058708;28;46354;-78
2022/03/10 08:52:50;;;;;;;;;38.75;32.25;;;;;10.52;53.56;101407.06;5058927;28;45364;-79
2022/03/10 08:55:15;;;;;;;;;35.50;34.75;;;;;10.64;52.89;101417.81;5058672;28;45427;-75
2022/03/10 08:57:41;;;;;;;;;39.00;34.00;;;;;10.56;53.31;101400.97;5057806;28;45305;-76
2022/03/10 09:00:09;;;;;;;;;33.75;32.50;;;;;10.82;52.80;101406.72;5058725;28;46280;-75
2022/03/10 09:02:35;;;;;;;;;30.75;28.25;;;;;11.11;52.74;101412.44;5058756;28;45347;-77
2022/03/10 09:05:04;;;;;;;;;35.50;29.75;;;;;11.32;50.80;101402.22;5059100;28;45226;-77
2022/03/10 09:07:29;;;;;;;;;38.25;35.25;;;;;12.61;49.25;101395.94;5064923;28;45218;-81
2022/03/10 09:09:55;;;;;;;;;33.00;31.00;;;;;16.96;40.86;101388.38;5079015;28;45495;-75
2022/03/10 09:12:20;;;;;;;;;33.50;28.00;;;;;19.70;34.48;101335.53;5060964;28;45406;-75
2022/03/10 09:14:46;;;;;;;;;23.25;23.00;;;;;19.04;34.69;101403.53;5058747;28;45330;-78
2022/03/10 09:17:13;;;;;;;;;35.25;31.25;;;;;17.21;37.53;101397.88;5059088;28;45275;-75
2022/03/10 09:19:39;;;;;;;;;28.50;25.25;;;;;16.62;39.09;101390.38;5071466;28;46426;-78
2022/03/10 09:22:04;;;;;;;;;32.75;31.25;;;;;16.12;38.80;101327.78;5061397;28;45451;-76
2022/03/10 09:24:31;;;;;;;;;30.75;24.75;;;;;16.51;38.61;101390.44;5058546;28;45200;-78
2022/03/10 09:26:57;;;;;;;;;33.25;30.75;;;;;19.38;35.04;101399.41;5074291;28;45382;-82
2022/03/10 09:29:22;;;;;;;;;32.25;29.00;;;;;22.43;29.77;101390.16;5068993;28;46222;-77
2022/03/10 09:31:48;;;;;;;;;31.75;27.00;;;;;25.23;27.39;101396.00;5078921;28;45234;-76
2022/03/10 09:34:13;;;;;;;;;31.25;26.50;;;;;26.89;24.72;101395.47;5078383;28;45291;-76
2022/03/10 09:36:39;;;;;;;;;25.00;24.00;;;;;28.55;23.69;101375.75;5078839;28;45295;-76
2022/03/10 09:39:05;;;;;;;;;30.33;28.67;;;;;29.22;21.59;101328.41;5073663;28;46133;-75
2022/03/10 09:41:30;;;;;;;;;26.00;25.00;;;;;30.47;21.32;101386.66;5058315;28;45353;-79
2022/03/10 09:43:56;;;;;;;;;33.33;31.00;;;;;31.10;19.45;101388.78;5058434;28;45394;-77
2022/03/10 09:46:22;;;;;;;;;21.67;21.67;;;;;29.43;20.39;101390.47;5070766;28;45293;-77
2022/03/10 09:48:48;;;;;;;;;26.33;23.67;;;;;29.49;20.89;101371.97;5078402;28;45795;-77
2022/03/10 09:51:14;;;;;;;;;31.67;29.67;;;;;30.59;19.44;101364.94;5078298;28;45428;-77
2022/03/10 09:53:39;;;;;;;;;26.33;24.33;;;;;30.25;20.08;101387.19;5078322;28;45546;-75
2022/03/10 09:56:05;;;;;;;;;29.00;25.00;;;;;30.66;19.04;101378.19;5060807;28;45393;-77
2022/03/10 09:58:34;;;;;;;;;23.00;21.33;;;;;31.14;19.19;101385.72;5067226;28;46236;-74
2022/03/10 10:01:00;;;;;;;;;26.67;26.67;;;;;32.76;17.73;101382.31;5058191;28;45165;-75
2022/03/10 10:03:27;;;;;;;;;22.00;19.67;;;;;34.38;16.43;101374.97;5070209;28;45915;-76
2022/03/10 10:06:00;;;;;;;;;25.67;25.00;;;;;35.62;17.31;101373.50;5058212;28;45338;-76
2022/03/10 10:08:27;;;;;;;;;22.25;20.25;;;;;36.57;15.11;101378.69;5065470;28;45524;-76
2022/03/10 10:10:56;;;;;;;;;22.80;21.60;;;;;36.83;14.14;101368.06;5076666;28;45547;-76
2022/03/10 10:13:31;;;;;;;;;22.20;21.80;;;;;37.04;14.25;101373.41;5057942;28;45229;-75
2022/03/10 10:15:59;;;;;;;;;24.00;20.25;;;;;37.36;14.43;101360.25;5057958;28;45325;-76
2022/03/10 10:18:26;;;;;;;;;24.00;22.40;;;;;37.35;14.52;101360.41;5056656;28;46690;-75
2022/03/10 10:20:53;;;;;;;;;20.20;20.20;;;;;36.45;14.15;101371.59;5058657;28;45409;-76
2022/03/10 10:23:21;;;;;;;;;17.60;17.60;;;;;36.75;14.87;101366.00;5047284;28;45357;-78
2022/03/10 10:25:51;;;;;;;;;23.20;21.80;;;;;37.45;14.31;101369.50;5056414;28;45458;-73
2022/03/10 10:28:31;;;;;;;;;25.40;23.80;;;;;37.93;13.53;101361.13;5056859;28;46114;-75
2022/03/10 10:31:11;;;;;;;;;20.60;20.00;;;;;38.82;12.06;101362.41;5060287;28;45362;-76
2022/03/10 10:33:39;;;;;;;;;22.20;21.00;;;;;38.76;13.05;101356.47;5059301;28;45476;-77
2022/03/10 10:36:19;;;;;;;;;25.60;23.60;;;;;39.68;12.34;101359.88;5061691;28;45497;-79
2022/03/10 10:38:47;;;;;;;;;22.20;21.60;;;;;40.18;12.07;101349.78;5063875;28;45567;-80
2022/03/10 10:41:30;;;;;;;;;14.80;14.80;;;;;39.64;12.22;101344.66;5057856;28;45508;-79
2022/03/10 10:43:58;;;;;;;;;23.40;20.80;;;;;40.29;11.89;101348.59;5061789;28;45514;-81
2022/03/10 10:46:39;;;;;;;;;19.20;16.60;;;;;39.47;12.29;101336.25;5070377;28;45392;-79
2022/03/10 10:49:17;;;;;;;;;24.40;19.80;;;;;37.26;13.56;101337.41;5037265;28;46260;-73
2022/03/10 10:51:45;;;;;;;;;20.00;20.00;;;;;36.96;14.14;101332.09;5038030;28;45448;-78
2022/03/10 10:54:33;;;;;;;;;21.00;18.20;;;;;37.29;13.28;101319.75;5036923;28;45363;-78
2022/03/10 10:57:05;;;;;;;;;16.60;16.60;;;;;36.75;13.93;101318.44;5055312;28;45497;-75
2022/03/10 10:59:38;;;;;;;;;17.40;16.40;;;;;37.74;13.05;101319.91;5057162;28;45389;-76
2022/03/10 11:02:17;;;;;;;;;19.20;17.40;;;;;38.05;13.00;101316.91;5074750;28;45535;-76
2022/03/10 11:04:52;;;;;;;;;15.20;14.40;;;;;37.93;12.79;101314.38;5078799;28;45346;-76
2022/03/10 11:07:20;;;;;;;;;17.80;15.80;;;;;36.95;13.34;101290.03;5056486;28;45193;-73
2022/03/10 11:09:47;;;;;;;;;18.40;18.40;;;;;36.92;13.96;101301.28;5071704;28;46787;-76
2022/03/10 11:12:15;;;;;;;;;16.20;16.00;;;;;36.95;14.51;101275.41;5075171;28;45340;-75
2022/03/10 11:14:44;;;;;;;;;14.60;14.60;;;;;36.82;13.77;101278.41;5067439;28;45468;-77
2022/03/10 11:17:11;;;;;;;;;18.40;15.60;;;;;36.56;14.23;101269.91;5057118;28;45469;-77